sensor_id;sensor_type;location;lat;lon;timestamp;temperature;humidity
8856;DHT22;4464;50.882;4.730;2023-07-20T00:02:09;15.90;99.90
8856;DHT22;4464;50.882;4.730;2023-07-20T00:04:35;15.90;99.90
8856;DHT22;4464;50.882;4.730;2023-07-20T00:07:01;16.00;99.90
8856;DHT22;4464;50.882;4.730;2023-07-20T00:09:27;16.00;99.90
8856;DHT22;4464;50.882;4.730;2023-07-20T00:11:53;16.00;99.90
8856;DHT22;4464;50.882;4.730;2023-07-20T00:14:21;16.00;99.90
8856;DHT22;4464;50.882;4.730;2023-07-20T00:16:49;16.10;99.90
8856;DHT22;4464;50.882;4.730;2023-07-20T00:19:25;16.10;99.90
8856;DHT22;4464;50.882;4.730;2023-07-20T00:21:54;16.10;99.90
8856;DHT22;4464;50.882;4.730;2023-07-20T00:24:23;16.20;99.90
8856;DHT22;4464;50.882;4.730;2023-07-20T00:26:49;16.20;99.90
8856;DHT22;4464;50.882;4.730;2023-07-20T00:29:18;16.20;99.90
8856;DHT22;4464;50.882;4.730;2023-07-20T00:31:43;16.20;99.90
8856;DHT22;4464;50.882;4.730;2023-07-20T00:34:09;16.30;99.90
8856;DHT22;4464;50.882;4.730;2023-07-20T00:36:37;16.20;99.90
8856;DHT22;4464;50.882;4.730;2023-07-20T00:39:03;16.20;99.90
8856;DHT22;4464;50.882;4.730;2023-07-20T00:41:29;16.30;99.90
8856;DHT22;4464;50.882;4.730;2023-07-20T00:43:55;16.30;99.90
8856;DHT22;4464;50.882;4.730;2023-07-20T00:46:23;16.30;99.90
8856;DHT22;4464;50.882;4.730;2023-07-20T00:48:51;16.30;99.90
8856;DHT22;4464;50.882;4.730;2023-07-20T00:51:21;16.30;99.90
8856;DHT22;4464;50.882;4.730;2023-07-20T00:53:47;16.40;99.90
8856;DHT22;4464;50.882;4.730;2023-07-20T00:56:12;16.30;99.90
8856;DHT22;4464;50.882;4.730;2023-07-20T00:58:40;16.40;99.90
8856;DHT22;4464;50.882;4.730;2023-07-20T01:01:06;16.40;99.90
8856;DHT22;4464;50.882;4.730;2023-07-20T01:03:34;16.40;99.90
8856;DHT22;4464;50.882;4.730;2023-07-20T01:06:07;16.40;99.90
8856;DHT22;4464;50.882;4.730;2023-07-20T01:14:14;16.50;99.90
8856;DHT22;4464;50.882;4.730;2023-07-20T01:16:43;16.40;99.90
8856;DHT22;4464;50.882;4.730;2023-07-20T01:19:13;16.40;99.90
8856;DHT22;4464;50.882;4.730;2023-07-20T01:32:55;16.50;99.90
8856;DHT22;4464;50.882;4.730;2023-07-20T01:35:29;16.50;99.90
8856;DHT22;4464;50.882;4.730;2023-07-20T01:37:59;16.50;99.90
8856;DHT22;4464;50.882;4.730;2023-07-20T01:40:25;16.50;99.90
8856;DHT22;4464;50.882;4.730;2023-07-20T01:42:52;16.50;99.90
8856;DHT22;4464;50.882;4.730;2023-07-20T01:45:18;16.50;99.90
8856;DHT22;4464;50.882;4.730;2023-07-20T01:47:44;16.50;99.90
8856;DHT22;4464;50.882;4.730;2023-07-20T01:50:10;16.50;99.90
8856;DHT22;4464;50.882;4.730;2023-07-20T01:52:36;16.50;99.90
8856;DHT22;4464;50.882;4.730;2023-07-20T01:55:02;16.50;99.90
8856;DHT22;4464;50.882;4.730;2023-07-20T01:57:30;16.40;99.90
8856;DHT22;4464;50.882;4.730;2023-07-20T01:59:58;16.50;99.90
8856;DHT22;4464;50.882;4.730;2023-07-20T02:02:27;16.50;99.90
8856;DHT22;4464;50.882;4.730;2023-07-20T02:04:55;16.50;99.90
8856;DHT22;4464;50.882;4.730;2023-07-20T02:07:21;16.50;99.90
8856;DHT22;4464;50.882;4.730;2023-07-20T02:09:47;16.40;99.90
8856;DHT22;4464;50.882;4.730;2023-07-20T02:12:13;16.40;99.90
8856;DHT22;4464;50.882;4.730;2023-07-20T02:14:39;16.30;99.90
8856;DHT22;4464;50.882;4.730;2023-07-20T02:17:05;16.20;99.90
8856;DHT22;4464;50.882;4.730;2023-07-20T02:19:31;16.30;99.90
8856;DHT22;4464;50.882;4.730;2023-07-20T02:21:59;16.30;99.90
8856;DHT22;4464;50.882;4.730;2023-07-20T02:24:24;16.20;99.90
8856;DHT22;4464;50.882;4.730;2023-07-20T02:26:53;16.20;99.90
8856;DHT22;4464;50.882;4.730;2023-07-20T02:29:19;16.20;99.90
8856;DHT22;4464;50.882;4.730;2023-07-20T02:31:45;16.20;99.90
8856;DHT22;4464;50.882;4.730;2023-07-20T02:34:10;16.20;99.90
8856;DHT22;4464;50.882;4.730;2023-07-20T02:36:36;16.20;99.90
8856;DHT22;4464;50.882;4.730;2023-07-20T02:39:02;16.20;99.90
8856;DHT22;4464;50.882;4.730;2023-07-20T02:41:33;16.10;99.90
8856;DHT22;4464;50.882;4.730;2023-07-20T02:43:59;16.20;99.90
8856;DHT22;4464;50.882;4.730;2023-07-20T02:46:25;16.20;99.90
8856;DHT22;4464;50.882;4.730;2023-07-20T02:48:53;16.10;99.90
8856;DHT22;4464;50.882;4.730;2023-07-20T02:51:19;16.10;99.90
8856;DHT22;4464;50.882;4.730;2023-07-20T02:53:45;16.20;99.90
8856;DHT22;4464;50.882;4.730;2023-07-20T02:56:11;16.10;99.90
8856;DHT22;4464;50.882;4.730;2023-07-20T02:58:41;16.10;99.90
8856;DHT22;4464;50.882;4.730;2023-07-20T03:01:11;16.10;99.90
8856;DHT22;4464;50.882;4.730;2023-07-20T03:03:40;16.10;99.90
8856;DHT22;4464;50.882;4.730;2023-07-20T03:06:06;16.00;99.90
8856;DHT22;4464;50.882;4.730;2023-07-20T03:08:38;16.00;99.90
8856;DHT22;4464;50.882;4.730;2023-07-20T03:11:11;15.90;99.90
8856;DHT22;4464;50.882;4.730;2023-07-20T03:13:36;15.90;99.90
8856;DHT22;4464;50.882;4.730;2023-07-20T03:16:07;15.80;99.90
8856;DHT22;4464;50.882;4.730;2023-07-20T03:18:39;15.80;99.90
8856;DHT22;4464;50.882;4.730;2023-07-20T03:21:08;15.80;99.90
8856;DHT22;4464;50.882;4.730;2023-07-20T03:23:36;15.80;99.90
8856;DHT22;4464;50.882;4.730;2023-07-20T03:26:02;15.80;99.90
8856;DHT22;4464;50.882;4.730;2023-07-20T03:28:30;15.90;99.90
8856;DHT22;4464;50.882;4.730;2023-07-20T03:30:57;15.90;99.90
8856;DHT22;4464;50.882;4.730;2023-07-20T03:33:29;15.90;99.90
8856;DHT22;4464;50.882;4.730;2023-07-20T03:35:55;15.90;99.90
8856;DHT22;4464;50.882;4.730;2023-07-20T03:38:22;16.00;99.90
8856;DHT22;4464;50.882;4.730;2023-07-20T03:40:52;15.90;99.90
8856;DHT22;4464;50.882;4.730;2023-07-20T03:43:17;16.00;99.90
8856;DHT22;4464;50.882;4.730;2023-07-20T03:45:46;16.00;99.90
8856;DHT22;4464;50.882;4.730;2023-07-20T03:48:16;15.90;99.90
8856;DHT22;4464;50.882;4.730;2023-07-20T03:50:45;15.90;99.90
8856;DHT22;4464;50.882;4.730;2023-07-20T03:53:11;15.90;99.90
8856;DHT22;4464;50.882;4.730;2023-07-20T03:55:37;15.90;99.90
8856;DHT22;4464;50.882;4.730;2023-07-20T03:58:06;15.90;99.90
8856;DHT22;4464;50.882;4.730;2023-07-20T04:00:35;16.00;99.90
8856;DHT22;4464;50.882;4.730;2023-07-20T04:03:03;16.00;99.90
8856;DHT22;4464;50.882;4.730;2023-07-20T04:05:29;16.00;99.90
8856;DHT22;4464;50.882;4.730;2023-07-20T04:07:55;16.00;99.90
8856;DHT22;4464;50.882;4.730;2023-07-20T04:10:20;16.00;99.90
8856;DHT22;4464;50.882;4.730;2023-07-20T04:12:46;15.90;99.90
8856;DHT22;4464;50.882;4.730;2023-07-20T04:15:15;16.00;99.90
8856;DHT22;4464;50.882;4.730;2023-07-20T04:17:41;16.10;99.90
8856;DHT22;4464;50.882;4.730;2023-07-20T04:20:07;16.10;99.90
8856;DHT22;4464;50.882;4.730;2023-07-20T04:22:38;16.10;99.90
8856;DHT22;4464;50.882;4.730;2023-07-20T04:25:04;16.10;99.90
8856;DHT22;4464;50.882;4.730;2023-07-20T04:27:30;16.10;99.90
8856;DHT22;4464;50.882;4.730;2023-07-20T04:29:57;16.20;99.90
8856;DHT22;4464;50.882;4.730;2023-07-20T04:32:25;16.30;99.90
8856;DHT22;4464;50.882;4.730;2023-07-20T04:34:51;16.30;99.90
8856;DHT22;4464;50.882;4.730;2023-07-20T04:37:17;16.30;99.90
8856;DHT22;4464;50.882;4.730;2023-07-20T04:39:45;16.50;99.90
8856;DHT22;4464;50.882;4.730;2023-07-20T04:42:11;16.50;99.90
8856;DHT22;4464;50.882;4.730;2023-07-20T04:44:37;16.60;99.90
8856;DHT22;4464;50.882;4.730;2023-07-20T04:47:03;16.70;99.90
8856;DHT22;4464;50.882;4.730;2023-07-20T04:49:29;16.80;99.90
8856;DHT22;4464;50.882;4.730;2023-07-20T04:51:54;16.80;99.90
8856;DHT22;4464;50.882;4.730;2023-07-20T04:54:20;16.80;99.90
8856;DHT22;4464;50.882;4.730;2023-07-20T04:56:46;16.70;99.90
8856;DHT22;4464;50.882;4.730;2023-07-20T04:59:14;16.70;99.90
8856;DHT22;4464;50.882;4.730;2023-07-20T05:01:40;16.70;99.90
8856;DHT22;4464;50.882;4.730;2023-07-20T05:04:06;16.70;99.90
8856;DHT22;4464;50.882;4.730;2023-07-20T05:06:35;16.80;99.90
8856;DHT22;4464;50.882;4.730;2023-07-20T05:09:05;16.80;99.90
8856;DHT22;4464;50.882;4.730;2023-07-20T05:11:32;16.90;99.90
8856;DHT22;4464;50.882;4.730;2023-07-20T05:13:58;17.00;99.90
8856;DHT22;4464;50.882;4.730;2023-07-20T05:16:23;16.80;99.90
8856;DHT22;4464;50.882;4.730;2023-07-20T05:18:49;16.80;99.90
8856;DHT22;4464;50.882;4.730;2023-07-20T05:21:15;16.80;99.90
8856;DHT22;4464;50.882;4.730;2023-07-20T05:23:40;17.00;99.90
8856;DHT22;4464;50.882;4.730;2023-07-20T05:26:08;17.00;99.90
8856;DHT22;4464;50.882;4.730;2023-07-20T05:28:34;17.20;99.90
8856;DHT22;4464;50.882;4.730;2023-07-20T05:31:03;17.30;99.90
8856;DHT22;4464;50.882;4.730;2023-07-20T05:33:29;17.30;99.90
8856;DHT22;4464;50.882;4.730;2023-07-20T05:35:57;17.20;99.90
8856;DHT22;4464;50.882;4.730;2023-07-20T05:38:23;17.10;99.90
8856;DHT22;4464;50.882;4.730;2023-07-20T05:40:48;17.10;99.90
8856;DHT22;4464;50.882;4.730;2023-07-20T05:43:14;17.20;99.90
8856;DHT22;4464;50.882;4.730;2023-07-20T05:45:43;17.30;99.90
8856;DHT22;4464;50.882;4.730;2023-07-20T05:48:10;17.30;99.90
8856;DHT22;4464;50.882;4.730;2023-07-20T05:50:46;17.30;99.90
8856;DHT22;4464;50.882;4.730;2023-07-20T05:53:11;17.30;99.90
8856;DHT22;4464;50.882;4.730;2023-07-20T05:55:37;17.30;99.90
8856;DHT22;4464;50.882;4.730;2023-07-20T05:58:04;17.40;99.90
8856;DHT22;4464;50.882;4.730;2023-07-20T06:00:30;17.40;99.90
8856;DHT22;4464;50.882;4.730;2023-07-20T06:02:56;17.50;99.90
8856;DHT22;4464;50.882;4.730;2023-07-20T06:05:24;17.50;99.90
8856;DHT22;4464;50.882;4.730;2023-07-20T06:07:50;17.60;99.90
8856;DHT22;4464;50.882;4.730;2023-07-20T06:10:16;17.80;99.90
8856;DHT22;4464;50.882;4.730;2023-07-20T06:12:42;17.90;99.90
8856;DHT22;4464;50.882;4.730;2023-07-20T06:15:33;18.00;99.90
8856;DHT22;4464;50.882;4.730;2023-07-20T06:18:03;18.10;99.90
8856;DHT22;4464;50.882;4.730;2023-07-20T06:20:31;18.00;99.90
8856;DHT22;4464;50.882;4.730;2023-07-20T06:22:57;17.70;99.90
8856;DHT22;4464;50.882;4.730;2023-07-20T06:25:23;17.70;99.90
8856;DHT22;4464;50.882;4.730;2023-07-20T06:27:51;17.70;99.90
8856;DHT22;4464;50.882;4.730;2023-07-20T06:30:17;17.80;99.90
8856;DHT22;4464;50.882;4.730;2023-07-20T06:32:43;18.10;99.90
8856;DHT22;4464;50.882;4.730;2023-07-20T06:35:09;18.10;99.90
8856;DHT22;4464;50.882;4.730;2023-07-20T06:37:35;18.40;99.90
8856;DHT22;4464;50.882;4.730;2023-07-20T06:40:03;18.60;99.90
8856;DHT22;4464;50.882;4.730;2023-07-20T06:42:30;18.70;99.90
8856;DHT22;4464;50.882;4.730;2023-07-20T06:44:57;18.80;99.90
8856;DHT22;4464;50.882;4.730;2023-07-20T06:47:23;19.00;99.90
8856;DHT22;4464;50.882;4.730;2023-07-20T06:49:49;19.00;99.90
8856;DHT22;4464;50.882;4.730;2023-07-20T06:52:15;19.10;99.90
8856;DHT22;4464;50.882;4.730;2023-07-20T06:54:41;19.20;99.90
8856;DHT22;4464;50.882;4.730;2023-07-20T06:57:09;19.50;99.90
8856;DHT22;4464;50.882;4.730;2023-07-20T06:59:35;19.60;99.90
8856;DHT22;4464;50.882;4.730;2023-07-20T07:02:03;19.70;99.90
8856;DHT22;4464;50.882;4.730;2023-07-20T07:04:29;19.70;99.90
8856;DHT22;4464;50.882;4.730;2023-07-20T07:06:55;19.40;99.90
8856;DHT22;4464;50.882;4.730;2023-07-20T07:09:23;19.30;99.90
8856;DHT22;4464;50.882;4.730;2023-07-20T07:11:50;19.40;99.90
8856;DHT22;4464;50.882;4.730;2023-07-20T07:14:15;19.50;99.90
8856;DHT22;4464;50.882;4.730;2023-07-20T07:16:44;19.70;99.90
8856;DHT22;4464;50.882;4.730;2023-07-20T07:19:09;19.80;99.90
8856;DHT22;4464;50.882;4.730;2023-07-20T07:21:37;19.60;99.90
8856;DHT22;4464;50.882;4.730;2023-07-20T07:24:03;19.50;99.90
8856;DHT22;4464;50.882;4.730;2023-07-20T07:26:31;19.60;99.90
8856;DHT22;4464;50.882;4.730;2023-07-20T07:28:57;19.70;99.90
8856;DHT22;4464;50.882;4.730;2023-07-20T07:31:25;19.70;99.90
8856;DHT22;4464;50.882;4.730;2023-07-20T07:33:51;19.80;99.90
8856;DHT22;4464;50.882;4.730;2023-07-20T07:36:16;20.10;99.90
8856;DHT22;4464;50.882;4.730;2023-07-20T07:38:42;20.40;99.90
8856;DHT22;4464;50.882;4.730;2023-07-20T07:41:08;20.50;99.90
8856;DHT22;4464;50.882;4.730;2023-07-20T07:43:34;20.80;99.90
8856;DHT22;4464;50.882;4.730;2023-07-20T07:46:00;21.00;99.90
8856;DHT22;4464;50.882;4.730;2023-07-20T07:48:27;21.00;99.90
8856;DHT22;4464;50.882;4.730;2023-07-20T07:50:56;21.10;99.90
8856;DHT22;4464;50.882;4.730;2023-07-20T07:53:22;21.20;99.90
8856;DHT22;4464;50.882;4.730;2023-07-20T07:55:48;21.00;99.90
8856;DHT22;4464;50.882;4.730;2023-07-20T07:58:14;21.00;99.90
8856;DHT22;4464;50.882;4.730;2023-07-20T08:00:41;20.80;99.90
8856;DHT22;4464;50.882;4.730;2023-07-20T08:03:08;20.90;99.90
8856;DHT22;4464;50.882;4.730;2023-07-20T08:05:37;21.10;99.90
8856;DHT22;4464;50.882;4.730;2023-07-20T08:08:03;21.30;99.90
8856;DHT22;4464;50.882;4.730;2023-07-20T08:10:34;21.50;99.90
8856;DHT22;4464;50.882;4.730;2023-07-20T08:13:00;21.30;99.90
8856;DHT22;4464;50.882;4.730;2023-07-20T08:15:25;20.70;99.90
8856;DHT22;4464;50.882;4.730;2023-07-20T08:17:51;20.30;99.90
8856;DHT22;4464;50.882;4.730;2023-07-20T08:20:17;20.70;99.90
8856;DHT22;4464;50.882;4.730;2023-07-20T08:22:45;21.00;99.90
8856;DHT22;4464;50.882;4.730;2023-07-20T08:25:14;21.00;99.90
8856;DHT22;4464;50.882;4.730;2023-07-20T08:27:39;21.30;99.90
8856;DHT22;4464;50.882;4.730;2023-07-20T08:30:06;21.40;99.90
8856;DHT22;4464;50.882;4.730;2023-07-20T08:32:36;21.30;99.90
8856;DHT22;4464;50.882;4.730;2023-07-20T08:35:01;21.30;99.90
8856;DHT22;4464;50.882;4.730;2023-07-20T08:37:27;21.50;99.90
8856;DHT22;4464;50.882;4.730;2023-07-20T08:39:55;21.50;99.90
8856;DHT22;4464;50.882;4.730;2023-07-20T08:42:24;21.60;99.90
8856;DHT22;4464;50.882;4.730;2023-07-20T08:44:52;21.80;99.90
8856;DHT22;4464;50.882;4.730;2023-07-20T08:47:18;22.10;99.90
8856;DHT22;4464;50.882;4.730;2023-07-20T08:49:48;22.30;99.90
8856;DHT22;4464;50.882;4.730;2023-07-20T08:52:14;22.30;99.90
8856;DHT22;4464;50.882;4.730;2023-07-20T08:54:40;22.10;99.90
8856;DHT22;4464;50.882;4.730;2023-07-20T08:57:06;22.20;99.90
8856;DHT22;4464;50.882;4.730;2023-07-20T08:59:34;22.10;99.90
8856;DHT22;4464;50.882;4.730;2023-07-20T09:02:02;22.30;99.90
8856;DHT22;4464;50.882;4.730;2023-07-20T09:04:30;22.30;99.90
8856;DHT22;4464;50.882;4.730;2023-07-20T09:06:57;22.10;99.90
8856;DHT22;4464;50.882;4.730;2023-07-20T09:09:22;22.10;99.90
8856;DHT22;4464;50.882;4.730;2023-07-20T09:11:54;22.20;99.90
8856;DHT22;4464;50.882;4.730;2023-07-20T09:14:19;22.30;99.90
8856;DHT22;4464;50.882;4.730;2023-07-20T09:16:55;22.30;99.90
8856;DHT22;4464;50.882;4.730;2023-07-20T09:19:21;22.40;99.90
8856;DHT22;4464;50.882;4.730;2023-07-20T09:21:51;22.40;99.90
8856;DHT22;4464;50.882;4.730;2023-07-20T09:24:20;23.00;99.90
8856;DHT22;4464;50.882;4.730;2023-07-20T09:26:47;24.00;99.90
8856;DHT22;4464;50.882;4.730;2023-07-20T09:29:20;24.60;99.90
8856;DHT22;4464;50.882;4.730;2023-07-20T09:32:02;26.20;99.80
8856;DHT22;4464;50.882;4.730;2023-07-20T09:34:32;28.00;96.10
8856;DHT22;4464;50.882;4.730;2023-07-20T09:37:05;29.00;92.30
8856;DHT22;4464;50.882;4.730;2023-07-20T09:39:31;29.20;91.80
8856;DHT22;4464;50.882;4.730;2023-07-20T09:42:00;28.50;91.70
8856;DHT22;4464;50.882;4.730;2023-07-20T09:44:28;28.40;91.20
8856;DHT22;4464;50.882;4.730;2023-07-20T09:46:54;28.60;91.30
8856;DHT22;4464;50.882;4.730;2023-07-20T09:49:21;28.40;91.60
8856;DHT22;4464;50.882;4.730;2023-07-20T09:51:47;27.50;92.20
8856;DHT22;4464;50.882;4.730;2023-07-20T09:54:14;27.30;91.30
8856;DHT22;4464;50.882;4.730;2023-07-20T09:56:41;26.90;91.80
8856;DHT22;4464;50.882;4.730;2023-07-20T09:59:07;25.50;93.40
8856;DHT22;4464;50.882;4.730;2023-07-20T10:01:34;26.30;94.20
8856;DHT22;4464;50.882;4.730;2023-07-20T10:04:03;26.90;92.20
8856;DHT22;4464;50.882;4.730;2023-07-20T10:06:32;25.30;93.70
8856;DHT22;4464;50.882;4.730;2023-07-20T10:09:02;25.90;93.50
8856;DHT22;4464;50.882;4.730;2023-07-20T10:11:35;26.00;93.50
8856;DHT22;4464;50.882;4.730;2023-07-20T10:14:03;25.60;92.80
8856;DHT22;4464;50.882;4.730;2023-07-20T10:16:35;25.20;93.60
8856;DHT22;4464;50.882;4.730;2023-07-20T10:21:41;25.60;93.30
8856;DHT22;4464;50.882;4.730;2023-07-20T10:24:08;26.30;92.60
8856;DHT22;4464;50.882;4.730;2023-07-20T10:26:34;27.00;91.40
8856;DHT22;4464;50.882;4.730;2023-07-20T10:29:01;28.00;90.20
8856;DHT22;4464;50.882;4.730;2023-07-20T10:31:30;29.30;88.30
8856;DHT22;4464;50.882;4.730;2023-07-20T10:34:01;30.60;84.00
8856;DHT22;4464;50.882;4.730;2023-07-20T10:36:28;31.30;82.20
8856;DHT22;4464;50.882;4.730;2023-07-20T10:38:55;31.60;79.90
8856;DHT22;4464;50.882;4.730;2023-07-20T10:41:35;31.50;81.00
8856;DHT22;4464;50.882;4.730;2023-07-20T10:44:07;32.20;78.70
8856;DHT22;4464;50.882;4.730;2023-07-20T10:49:06;30.30;78.00
8856;DHT22;4464;50.882;4.730;2023-07-20T10:51:47;29.50;81.00
8856;DHT22;4464;50.882;4.730;2023-07-20T10:56:43;26.90;84.80
8856;DHT22;4464;50.882;4.730;2023-07-20T11:01:56;26.60;86.30
8856;DHT22;4464;50.882;4.730;2023-07-20T11:04:42;27.30;85.80
8856;DHT22;4464;50.882;4.730;2023-07-20T11:07:09;27.80;83.40
8856;DHT22;4464;50.882;4.730;2023-07-20T11:09:38;27.50;86.30
8856;DHT22;4464;50.882;4.730;2023-07-20T11:12:12;28.20;86.70
8856;DHT22;4464;50.882;4.730;2023-07-20T11:14:43;29.60;83.60
8856;DHT22;4464;50.882;4.730;2023-07-20T11:17:18;30.20;80.20
8856;DHT22;4464;50.882;4.730;2023-07-20T11:19:56;28.70;79.10
8856;DHT22;4464;50.882;4.730;2023-07-20T11:22:24;27.80;81.60
8856;DHT22;4464;50.882;4.730;2023-07-20T11:24:54;27.80;82.50
8856;DHT22;4464;50.882;4.730;2023-07-20T11:27:23;27.40;84.70
8856;DHT22;4464;50.882;4.730;2023-07-20T11:29:49;26.30;87.60
8856;DHT22;4464;50.882;4.730;2023-07-20T11:32:21;25.50;88.80
8856;DHT22;4464;50.882;4.730;2023-07-20T11:34:50;24.80;90.30
8856;DHT22;4464;50.882;4.730;2023-07-20T11:37:17;24.70;90.60
8856;DHT22;4464;50.882;4.730;2023-07-20T11:39:46;24.20;91.50
8856;DHT22;4464;50.882;4.730;2023-07-20T11:42:12;23.90;92.00
8856;DHT22;4464;50.882;4.730;2023-07-20T11:44:40;23.70;92.50
8856;DHT22;4464;50.882;4.730;2023-07-20T11:47:07;23.30;93.00
8856;DHT22;4464;50.882;4.730;2023-07-20T11:49:43;23.20;92.90
8856;DHT22;4464;50.882;4.730;2023-07-20T11:52:15;23.20;93.00
8856;DHT22;4464;50.882;4.730;2023-07-20T11:54:43;23.30;93.10
8856;DHT22;4464;50.882;4.730;2023-07-20T11:57:19;23.00;93.50
8856;DHT22;4464;50.882;4.730;2023-07-20T12:00:01;23.10;93.10
8856;DHT22;4464;50.882;4.730;2023-07-20T12:02:30;23.20;93.60
8856;DHT22;4464;50.882;4.730;2023-07-20T12:04:56;23.60;93.20
8856;DHT22;4464;50.882;4.730;2023-07-20T12:07:23;23.70;93.50
8856;DHT22;4464;50.882;4.730;2023-07-20T12:12:32;25.40;92.30
8856;DHT22;4464;50.882;4.730;2023-07-20T12:17:42;29.10;84.50
8856;DHT22;4464;50.882;4.730;2023-07-20T12:20:09;28.50;84.00
8856;DHT22;4464;50.882;4.730;2023-07-20T12:22:43;27.80;84.10
8856;DHT22;4464;50.882;4.730;2023-07-20T12:25:09;27.40;84.30
8856;DHT22;4464;50.882;4.730;2023-07-20T12:27:36;26.70;86.50
8856;DHT22;4464;50.882;4.730;2023-07-20T12:30:07;25.90;87.40
8856;DHT22;4464;50.882;4.730;2023-07-20T12:32:33;25.10;89.10
8856;DHT22;4464;50.882;4.730;2023-07-20T12:35:01;25.30;89.40
8856;DHT22;4464;50.882;4.730;2023-07-20T12:37:27;25.00;90.00
8856;DHT22;4464;50.882;4.730;2023-07-20T12:39:54;25.90;88.40
8856;DHT22;4464;50.882;4.730;2023-07-20T12:42:19;27.50;86.40
8856;DHT22;4464;50.882;4.730;2023-07-20T12:44:45;27.70;84.60
8856;DHT22;4464;50.882;4.730;2023-07-20T12:47:13;27.30;85.00
8856;DHT22;4464;50.882;4.730;2023-07-20T12:49:39;27.00;85.10
8856;DHT22;4464;50.882;4.730;2023-07-20T12:52:05;25.90;88.30
8856;DHT22;4464;50.882;4.730;2023-07-20T12:54:33;25.80;89.10
8856;DHT22;4464;50.882;4.730;2023-07-20T12:57:03;26.50;87.70
8856;DHT22;4464;50.882;4.730;2023-07-20T12:59:32;27.70;84.90
8856;DHT22;4464;50.882;4.730;2023-07-20T13:02:00;28.50;82.40
8856;DHT22;4464;50.882;4.730;2023-07-20T13:04:27;28.90;78.60
8856;DHT22;4464;50.882;4.730;2023-07-20T13:06:53;28.20;79.70
8856;DHT22;4464;50.882;4.730;2023-07-20T13:09:18;27.70;80.50
8856;DHT22;4464;50.882;4.730;2023-07-20T13:11:46;27.10;80.90
8856;DHT22;4464;50.882;4.730;2023-07-20T13:14:12;28.60;80.00
8856;DHT22;4464;50.882;4.730;2023-07-20T13:16:38;31.00;77.50
8856;DHT22;4464;50.882;4.730;2023-07-20T13:19:06;32.30;72.60
8856;DHT22;4464;50.882;4.730;2023-07-20T13:21:34;33.60;70.30
8856;DHT22;4464;50.882;4.730;2023-07-20T13:24:02;31.40;70.60
8856;DHT22;4464;50.882;4.730;2023-07-20T13:26:29;31.20;70.50
8856;DHT22;4464;50.882;4.730;2023-07-20T13:28:55;30.00;69.90
8856;DHT22;4464;50.882;4.730;2023-07-20T13:31:21;29.00;73.70
8856;DHT22;4464;50.882;4.730;2023-07-20T13:33:50;28.40;74.30
8856;DHT22;4464;50.882;4.730;2023-07-20T13:36:16;27.70;76.70
8856;DHT22;4464;50.882;4.730;2023-07-20T13:38:41;27.10;77.40
8856;DHT22;4464;50.882;4.730;2023-07-20T13:41:07;26.30;78.90
8856;DHT22;4464;50.882;4.730;2023-07-20T13:43:33;25.80;81.70
8856;DHT22;4464;50.882;4.730;2023-07-20T13:46:01;25.30;82.00
8856;DHT22;4464;50.882;4.730;2023-07-20T13:48:30;24.70;83.50
8856;DHT22;4464;50.882;4.730;2023-07-20T13:50:56;24.60;83.70
8856;DHT22;4464;50.882;4.730;2023-07-20T13:53:22;24.70;84.40
8856;DHT22;4464;50.882;4.730;2023-07-20T13:55:48;24.50;85.30
8856;DHT22;4464;50.882;4.730;2023-07-20T13:58:14;24.20;85.30
8856;DHT22;4464;50.882;4.730;2023-07-20T14:00:40;23.80;87.40
8856;DHT22;4464;50.882;4.730;2023-07-20T14:03:05;23.60;89.40
8856;DHT22;4464;50.882;4.730;2023-07-20T14:05:31;23.50;89.50
8856;DHT22;4464;50.882;4.730;2023-07-20T14:07:57;23.50;89.90
8856;DHT22;4464;50.882;4.730;2023-07-20T14:10:23;23.50;90.20
8856;DHT22;4464;50.882;4.730;2023-07-20T14:12:49;23.50;90.10
8856;DHT22;4464;50.882;4.730;2023-07-20T14:15:17;23.40;90.40
8856;DHT22;4464;50.882;4.730;2023-07-20T14:17:44;23.50;90.50
8856;DHT22;4464;50.882;4.730;2023-07-20T14:20:11;23.60;90.50
8856;DHT22;4464;50.882;4.730;2023-07-20T14:22:36;23.80;90.70
8856;DHT22;4464;50.882;4.730;2023-07-20T14:25:02;23.90;90.60
8856;DHT22;4464;50.882;4.730;2023-07-20T14:27:31;23.80;91.10
8856;DHT22;4464;50.882;4.730;2023-07-20T14:29:57;23.70;91.00
8856;DHT22;4464;50.882;4.730;2023-07-20T14:32:22;24.30;90.90
8856;DHT22;4464;50.882;4.730;2023-07-20T14:34:51;24.60;91.00
8856;DHT22;4464;50.882;4.730;2023-07-20T14:37:19;24.50;90.70
8856;DHT22;4464;50.882;4.730;2023-07-20T14:39:45;24.90;90.60
8856;DHT22;4464;50.882;4.730;2023-07-20T14:42:10;25.20;90.20
8856;DHT22;4464;50.882;4.730;2023-07-20T14:44:36;25.00;89.80
8856;DHT22;4464;50.882;4.730;2023-07-20T14:47:02;24.70;90.10
8856;DHT22;4464;50.882;4.730;2023-07-20T14:49:28;24.20;90.50
8856;DHT22;4464;50.882;4.730;2023-07-20T14:51:54;24.00;91.00
8856;DHT22;4464;50.882;4.730;2023-07-20T14:54:19;23.90;91.00
8856;DHT22;4464;50.882;4.730;2023-07-20T14:56:49;24.00;91.10
8856;DHT22;4464;50.882;4.730;2023-07-20T14:59:19;24.70;91.10
8856;DHT22;4464;50.882;4.730;2023-07-20T15:01:45;25.30;90.20
8856;DHT22;4464;50.882;4.730;2023-07-20T15:04:12;26.20;88.60
8856;DHT22;4464;50.882;4.730;2023-07-20T15:06:38;27.40;86.80
8856;DHT22;4464;50.882;4.730;2023-07-20T15:09:04;29.40;82.90
8856;DHT22;4464;50.882;4.730;2023-07-20T15:11:30;29.20;80.80
8856;DHT22;4464;50.882;4.730;2023-07-20T15:13:55;27.70;83.40
8856;DHT22;4464;50.882;4.730;2023-07-20T15:16:23;28.30;83.20
8856;DHT22;4464;50.882;4.730;2023-07-20T15:18:49;29.80;80.50
8856;DHT22;4464;50.882;4.730;2023-07-20T15:21:15;31.90;76.80
8856;DHT22;4464;50.882;4.730;2023-07-20T15:23:45;32.90;73.10
8856;DHT22;4464;50.882;4.730;2023-07-20T15:26:11;33.40;71.60
8856;DHT22;4464;50.882;4.730;2023-07-20T15:28:38;31.90;71.90
8856;DHT22;4464;50.882;4.730;2023-07-20T15:31:05;31.50;72.80
8856;DHT22;4464;50.882;4.730;2023-07-20T15:33:31;29.80;76.20
8856;DHT22;4464;50.882;4.730;2023-07-20T15:35:57;30.20;75.00
8856;DHT22;4464;50.882;4.730;2023-07-20T15:38:23;29.50;76.50
8856;DHT22;4464;50.882;4.730;2023-07-20T15:40:51;28.50;78.60
8856;DHT22;4464;50.882;4.730;2023-07-20T15:43:18;28.60;78.30
8856;DHT22;4464;50.882;4.730;2023-07-20T15:45:47;28.30;79.90
8856;DHT22;4464;50.882;4.730;2023-07-20T15:48:16;28.00;81.90
8856;DHT22;4464;50.882;4.730;2023-07-20T15:50:43;26.80;83.20
8856;DHT22;4464;50.882;4.730;2023-07-20T15:53:09;25.80;86.30
8856;DHT22;4464;50.882;4.730;2023-07-20T15:55:35;25.50;87.50
8856;DHT22;4464;50.882;4.730;2023-07-20T15:58:01;25.50;89.00
8856;DHT22;4464;50.882;4.730;2023-07-20T16:00:28;25.60;88.20
8856;DHT22;4464;50.882;4.730;2023-07-20T16:02:53;25.40;87.40
8856;DHT22;4464;50.882;4.730;2023-07-20T16:05:21;25.20;87.90
8856;DHT22;4464;50.882;4.730;2023-07-20T16:07:49;24.90;88.70
8856;DHT22;4464;50.882;4.730;2023-07-20T16:10:17;24.80;90.10
8856;DHT22;4464;50.882;4.730;2023-07-20T16:12:43;24.40;90.00
8856;DHT22;4464;50.882;4.730;2023-07-20T16:15:11;24.20;90.50
8856;DHT22;4464;50.882;4.730;2023-07-20T16:17:37;24.00;90.90
8856;DHT22;4464;50.882;4.730;2023-07-20T16:20:02;23.80;91.40
8856;DHT22;4464;50.882;4.730;2023-07-20T16:22:29;23.70;91.70
8856;DHT22;4464;50.882;4.730;2023-07-20T16:24:57;23.30;92.20
8856;DHT22;4464;50.882;4.730;2023-07-20T16:27:23;22.90;92.80
8856;DHT22;4464;50.882;4.730;2023-07-20T16:29:49;22.50;93.40
8856;DHT22;4464;50.882;4.730;2023-07-20T16:32:17;22.30;93.60
8856;DHT22;4464;50.882;4.730;2023-07-20T16:37:09;20.90;99.90
8856;DHT22;4464;50.882;4.730;2023-07-20T16:39:37;19.70;99.90